Terminal Aerodrome Forecast
Issued by NWS

Home | Current Version | Previous Version | Text Only | Print | Product List | Glossary On
Versions: 1 2 3 4 5 6 7 8 9 10 11 12
000
FTUS41 KPBZ 031127
TAFBVI
TAF
KBVI 031127Z 0312/0412 21006KT P6SM SCT040 BKN250
     FM031500 22010G17KT P6SM VCSH BKN040
     FM031800 23012G20KT 6SM -SHRA VCTS BKN050CB
     FM040100 27007KT P6SM BKN040
     FM040800 VRB03KT P6SM SCT040=

USA.gov is the U.S. government's official web portal to all federal, state and local government web resources and services.